createdAt,value
2023-05-30T00:00:06.146Z,10.13
2023-05-30T00:02:32.692Z,10.04
2023-05-30T00:04:59.356Z,9.97
2023-05-30T00:07:25.846Z,9.96
2023-05-30T00:09:52.323Z,9.91
2023-05-30T00:12:18.833Z,10.06
2023-05-30T00:14:45.433Z,9.68
2023-05-30T00:17:12.116Z,9.93
2023-05-30T00:19:38.752Z,9.97
2023-05-30T00:22:05.404Z,9.98
2023-05-30T00:24:32.014Z,10.04
2023-05-30T00:26:58.831Z,9.92
2023-05-30T00:29:25.448Z,9.59
2023-05-30T00:31:51.992Z,9.88
2023-05-30T00:34:18.660Z,9.94
2023-05-30T00:36:45.352Z,9.88
2023-05-30T00:39:11.901Z,9.85
2023-05-30T00:41:38.672Z,9.86
2023-05-30T00:44:05.288Z,9.85
2023-05-30T00:46:31.948Z,9.82
2023-05-30T00:48:59.729Z,9.75
2023-05-30T00:51:29.875Z,9.72
2023-05-30T00:53:57.571Z,9.75
2023-05-30T00:56:24.174Z,9.55
2023-05-30T00:58:52.767Z,9.71
2023-05-30T01:01:20.296Z,9.68
2023-05-30T01:03:51.196Z,9.58
2023-05-30T01:06:18.984Z,9.61
2023-05-30T01:08:45.740Z,9.31
2023-05-30T01:11:40.771Z,9.45
2023-05-30T01:14:21.171Z,9.23
2023-05-30T01:16:55.585Z,9.41
2023-05-30T01:19:44.044Z,9.17
2023-05-30T01:22:36.505Z,9.30
2023-05-30T01:25:38.686Z,9.43
2023-05-30T01:28:06.820Z,9.20
2023-05-30T01:30:36.611Z,9.29
2023-05-30T01:33:04.912Z,9.10
2023-05-30T01:35:31.492Z,9.38
2023-05-30T01:37:58.006Z,9.24
2023-05-30T01:40:28.440Z,9.06
2023-05-30T01:43:36.347Z,9.18
2023-05-30T01:46:21.667Z,9.28
2023-05-30T01:49:10.979Z,9.16
2023-05-30T01:51:39.657Z,9.24
2023-05-30T01:54:09.227Z,8.85
2023-05-30T01:56:38.499Z,9.00
2023-05-30T01:59:07.420Z,8.90
2023-05-30T02:01:35.083Z,9.09
2023-05-30T02:04:01.686Z,9.06
2023-05-30T02:06:28.192Z,9.10
2023-05-30T02:08:54.715Z,8.75
2023-05-30T02:11:21.300Z,8.72
2023-05-30T02:13:47.958Z,8.70
2023-05-30T02:16:14.676Z,8.83
2023-05-30T02:18:41.209Z,8.84
2023-05-30T02:21:08.050Z,8.97
2023-05-30T02:23:35.094Z,8.63
2023-05-30T02:26:01.599Z,8.68
2023-05-30T02:28:28.216Z,8.83
2023-05-30T02:30:54.703Z,8.65
2023-05-30T02:33:21.180Z,9.00
2023-05-30T02:35:47.761Z,8.98
2023-05-30T02:38:14.255Z,9.00
2023-05-30T02:40:40.699Z,8.99
2023-05-30T02:43:16.777Z,8.78
2023-05-30T02:45:46.828Z,8.83
2023-05-30T02:48:13.410Z,8.83
2023-05-30T02:50:39.953Z,8.81
2023-05-30T02:53:06.430Z,8.79
2023-05-30T02:55:32.909Z,8.61
2023-05-30T02:57:59.521Z,8.86
2023-05-30T03:00:25.987Z,8.81
2023-05-30T03:02:52.442Z,8.78
2023-05-30T03:05:18.997Z,8.81
2023-05-30T03:07:45.552Z,8.67
2023-05-30T03:10:12.152Z,8.48
2023-05-30T03:12:38.565Z,8.71
2023-05-30T03:15:05.562Z,8.72
2023-05-30T03:17:32.034Z,8.43
2023-05-30T03:19:58.535Z,8.80
2023-05-30T03:22:24.990Z,8.76
2023-05-30T03:24:51.439Z,8.87
2023-05-30T03:27:18.125Z,8.77
2023-05-30T03:29:44.642Z,8.48
2023-05-30T03:32:11.201Z,8.70
2023-05-30T03:34:37.717Z,8.70
2023-05-30T03:37:04.336Z,8.74
2023-05-30T03:39:30.891Z,8.80
2023-05-30T03:41:57.366Z,8.77
2023-05-30T03:44:23.864Z,8.92
2023-05-30T03:46:50.292Z,8.83
2023-05-30T03:49:16.703Z,8.64
2023-05-30T03:51:43.223Z,8.62
2023-05-30T03:54:09.755Z,8.78
2023-05-30T03:56:36.206Z,8.88
2023-05-30T03:59:02.720Z,9.06
2023-05-30T04:01:29.259Z,8.88
2023-05-30T04:03:55.943Z,8.89
2023-05-30T04:06:22.451Z,9.03
2023-05-30T04:08:49.118Z,9.19
2023-05-30T04:11:15.591Z,9.25
2023-05-30T04:13:42.073Z,8.99
2023-05-30T04:16:08.689Z,9.29
2023-05-30T04:18:35.244Z,9.43
2023-05-30T04:21:02.015Z,9.44
2023-05-30T04:23:28.883Z,9.36
2023-05-30T04:25:55.324Z,9.30
2023-05-30T04:28:21.894Z,9.22
2023-05-30T04:30:48.495Z,9.42
2023-05-30T04:33:18.781Z,9.64
2023-05-30T04:35:46.168Z,9.49
2023-05-30T04:38:12.846Z,9.76
2023-05-30T04:40:39.321Z,9.60
2023-05-30T04:43:05.828Z,9.62
2023-05-30T04:45:32.406Z,9.89
2023-05-30T04:47:59.044Z,9.57
2023-05-30T04:50:25.918Z,9.67
2023-05-30T04:52:52.534Z,9.45
2023-05-30T04:55:19.296Z,9.38
2023-05-30T04:57:45.852Z,9.54
2023-05-30T05:00:12.838Z,9.77
2023-05-30T05:02:40.905Z,9.76
2023-05-30T05:05:08.308Z,9.77
2023-05-30T05:07:41.012Z,9.89
2023-05-30T05:10:08.789Z,9.98
2023-05-30T05:12:35.297Z,9.82
2023-05-30T05:15:01.896Z,10.01
2023-05-30T05:17:28.386Z,10.17
2023-05-30T05:19:55.038Z,10.29
2023-05-30T05:22:21.519Z,10.51
2023-05-30T05:24:48.074Z,10.40
2023-05-30T05:27:14.904Z,10.40
2023-05-30T05:29:41.364Z,10.09
2023-05-30T05:32:08.529Z,9.95
2023-05-30T05:34:35.027Z,10.27
2023-05-30T05:37:01.503Z,10.25
2023-05-30T05:39:28.101Z,10.42
2023-05-30T05:41:54.850Z,10.19
2023-05-30T05:44:22.683Z,11.00
2023-05-30T05:46:50.463Z,10.81
2023-05-30T05:49:16.982Z,10.83
2023-05-30T05:51:43.547Z,11.08
2023-05-30T05:54:10.044Z,10.82
2023-05-30T05:56:36.588Z,11.01
2023-05-30T05:59:03.110Z,10.95
2023-05-30T06:01:29.651Z,10.69
2023-05-30T06:03:56.312Z,11.03
2023-05-30T06:06:22.963Z,10.77
2023-05-30T06:08:49.584Z,11.12
2023-05-30T06:11:16.042Z,11.23
2023-05-30T06:13:42.658Z,11.79
2023-05-30T06:16:09.206Z,11.87
2023-05-30T06:18:35.761Z,12.14
2023-05-30T06:21:02.862Z,11.54
2023-05-30T06:23:29.817Z,11.35
2023-05-30T06:25:56.392Z,11.26
2023-05-30T06:28:22.947Z,11.31
2023-05-30T06:30:49.512Z,11.56
2023-05-30T06:33:16.125Z,12.09
2023-05-30T06:35:42.665Z,12.49
2023-05-30T06:38:09.207Z,12.33
2023-05-30T06:40:35.746Z,12.12
2023-05-30T06:43:02.221Z,12.39
2023-05-30T06:45:28.780Z,12.81
2023-05-30T06:47:55.300Z,12.38
2023-05-30T06:50:21.782Z,12.29
2023-05-30T06:52:48.324Z,12.34
2023-05-30T06:55:15.589Z,12.15
2023-05-30T06:57:44.128Z,12.32
2023-05-30T07:00:11.739Z,12.51
2023-05-30T07:02:38.295Z,12.24
2023-05-30T07:05:05.552Z,12.37
2023-05-30T07:07:32.346Z,12.28
2023-05-30T07:09:58.806Z,12.60
2023-05-30T07:12:26.482Z,12.53
2023-05-30T07:14:53.338Z,12.95
2023-05-30T07:17:19.942Z,13.31
2023-05-30T07:19:46.501Z,13.46
2023-05-30T07:22:13.022Z,13.57
2023-05-30T07:24:39.607Z,13.59
2023-05-30T07:27:06.675Z,13.47
2023-05-30T07:29:33.344Z,13.31
2023-05-30T07:32:00.077Z,13.05
2023-05-30T07:34:26.647Z,13.49
2023-05-30T07:36:53.113Z,13.01
2023-05-30T07:39:19.718Z,13.21
2023-05-30T07:41:46.424Z,13.97
2023-05-30T07:44:13.054Z,14.86
2023-05-30T07:46:39.651Z,13.84
2023-05-30T07:49:06.147Z,13.69
2023-05-30T07:51:32.696Z,13.37
2023-05-30T07:53:59.318Z,13.97
2023-05-30T07:56:25.945Z,13.77
2023-05-30T07:58:52.491Z,14.05
2023-05-30T08:01:18.980Z,14.90
2023-05-30T08:03:45.805Z,17.28
2023-05-30T08:06:12.584Z,16.98
2023-05-30T08:08:39.166Z,17.08
2023-05-30T08:11:05.745Z,17.24
2023-05-30T08:13:32.526Z,17.39
2023-05-30T08:15:59.277Z,16.59
2023-05-30T08:18:25.784Z,14.06
2023-05-30T08:20:52.695Z,15.43
2023-05-30T08:23:19.265Z,16.47
2023-05-30T08:25:45.768Z,17.64
2023-05-30T08:28:12.684Z,17.43
2023-05-30T08:30:39.470Z,17.20
2023-05-30T08:33:05.987Z,17.22
2023-05-30T08:35:32.633Z,17.83
2023-05-30T08:37:59.142Z,17.10
2023-05-30T08:40:27.364Z,17.13
2023-05-30T08:42:54.287Z,18.55
2023-05-30T08:45:20.952Z,17.48
2023-05-30T08:47:48.999Z,17.68
2023-05-30T08:50:16.285Z,17.79
2023-05-30T08:52:45.152Z,18.25
2023-05-30T08:55:16.032Z,18.72
2023-05-30T08:57:50.924Z,19.39
2023-05-30T09:00:18.390Z,19.45
2023-05-30T09:02:46.136Z,18.23
2023-05-30T09:05:14.213Z,18.24
2023-05-30T09:07:41.721Z,18.88
2023-05-30T09:10:08.961Z,19.30
2023-05-30T09:12:36.296Z,17.23
2023-05-30T09:15:03.063Z,18.98
2023-05-30T09:17:29.559Z,19.99
2023-05-30T09:19:57.494Z,20.10
2023-05-30T09:22:25.253Z,19.33
2023-05-30T09:24:59.924Z,18.84
2023-05-30T09:27:27.587Z,18.96
2023-05-30T09:29:56.338Z,20.92
2023-05-30T09:32:29.362Z,21.29
2023-05-30T09:34:59.097Z,20.64
2023-05-30T09:37:25.669Z,20.71
2023-05-30T09:40:11.814Z,20.77
2023-05-30T09:42:43.898Z,20.40
2023-05-30T09:45:15.509Z,20.98
2023-05-30T09:47:49.499Z,22.43
2023-05-30T09:50:18.571Z,21.94
2023-05-30T09:52:45.965Z,20.09
2023-05-30T09:55:16.746Z,20.74
2023-05-30T09:57:48.309Z,20.91
2023-05-30T10:00:17.460Z,20.52
2023-05-30T10:02:59.083Z,20.08
2023-05-30T10:05:28.046Z,21.78
2023-05-30T10:07:57.116Z,20.10
2023-05-30T10:10:24.715Z,20.50
2023-05-30T10:12:55.895Z,21.37
2023-05-30T10:15:24.358Z,21.79
2023-05-30T10:17:56.424Z,21.09
2023-05-30T10:20:26.936Z,20.57
2023-05-30T10:22:53.897Z,20.62
2023-05-30T10:25:21.910Z,20.35
2023-05-30T10:27:57.500Z,20.51
2023-05-30T10:30:29.364Z,19.37
2023-05-30T10:33:08.277Z,19.74
2023-05-30T10:35:35.962Z,20.37
2023-05-30T10:38:06.672Z,19.33
2023-05-30T10:40:42.002Z,19.83
2023-05-30T10:43:52.920Z,19.19
2023-05-30T10:46:28.352Z,19.34
2023-05-30T10:49:01.574Z,18.91
2023-05-30T10:51:28.222Z,18.64
2023-05-30T10:53:56.846Z,19.19
2023-05-30T10:56:42.384Z,19.10
2023-05-30T10:59:18.382Z,18.95
2023-05-30T11:02:05.132Z,18.60
2023-05-30T11:04:37.329Z,19.00
2023-05-30T11:07:07.260Z,18.07
2023-05-30T11:09:33.922Z,19.01
2023-05-30T11:12:01.481Z,18.78
2023-05-30T11:14:33.816Z,18.39
2023-05-30T11:17:09.795Z,17.95
2023-05-30T11:19:44.022Z,18.41
2023-05-30T11:22:14.258Z,18.35
2023-05-30T11:24:41.326Z,18.89
2023-05-30T11:27:08.655Z,18.68
2023-05-30T11:29:54.542Z,19.15
2023-05-30T11:32:23.479Z,17.86
2023-05-30T11:35:03.651Z,18.19
2023-05-30T11:37:32.534Z,18.56
2023-05-30T11:39:59.626Z,18.53
2023-05-30T11:42:26.481Z,18.72
2023-05-30T11:44:53.548Z,18.63
2023-05-30T11:47:43.933Z,18.76
2023-05-30T11:50:07.892Z,18.52
2023-05-30T11:52:40.423Z,19.02
2023-05-30T11:55:07.344Z,19.26
2023-05-30T11:57:34.037Z,19.21
2023-05-30T12:00:00.602Z,18.80
2023-05-30T12:02:33.546Z,19.01
2023-05-30T12:05:01.536Z,18.82
2023-05-30T12:07:28.316Z,18.57
2023-05-30T12:09:54.925Z,19.04
2023-05-30T12:12:21.475Z,19.35
2023-05-30T12:14:48.060Z,19.45
2023-05-30T12:17:17.608Z,19.10
2023-05-30T12:19:44.863Z,19.44
2023-05-30T12:22:12.251Z,19.44
2023-05-30T12:24:39.772Z,19.05
2023-05-30T12:27:06.832Z,18.74
2023-05-30T12:29:34.653Z,18.60
2023-05-30T12:32:02.335Z,18.82
2023-05-30T12:34:48.080Z,19.50
2023-05-30T12:37:16.009Z,18.94
2023-05-30T12:39:51.797Z,19.12
2023-05-30T12:42:22.437Z,19.52
2023-05-30T12:44:51.012Z,19.55
2023-05-30T12:47:17.641Z,19.22
2023-05-30T12:49:44.571Z,19.68
2023-05-30T12:52:11.930Z,19.50
2023-05-30T12:54:38.833Z,19.98
2023-05-30T12:57:05.549Z,19.83
2023-05-30T12:59:32.154Z,20.03
2023-05-30T13:01:58.758Z,20.02
2023-05-30T13:04:25.338Z,21.05
2023-05-30T13:06:51.865Z,20.94
2023-05-30T13:09:18.345Z,21.11
2023-05-30T13:11:46.516Z,20.99
2023-05-30T13:14:13.532Z,21.04
2023-05-30T13:16:40.262Z,21.04
2023-05-30T13:19:06.966Z,20.57
2023-05-30T13:21:33.523Z,20.33
2023-05-30T13:24:00.056Z,20.55
2023-05-30T13:26:26.629Z,20.85
2023-05-30T13:28:53.259Z,20.48
2023-05-30T13:31:19.814Z,20.24
2023-05-30T13:33:46.422Z,20.30
2023-05-30T13:36:12.941Z,20.85
2023-05-30T13:38:39.476Z,20.02
2023-05-30T13:41:06.683Z,20.92
2023-05-30T13:43:33.241Z,20.41
2023-05-30T13:46:00.588Z,20.54
2023-05-30T13:48:27.559Z,21.46
2023-05-30T13:50:54.131Z,20.53
2023-05-30T13:53:29.784Z,20.72
2023-05-30T13:55:57.270Z,20.88
2023-05-30T13:58:23.940Z,20.38
2023-05-30T14:00:50.481Z,20.63
2023-05-30T14:03:17.253Z,20.60
2023-05-30T14:05:43.884Z,20.31
2023-05-30T14:08:10.401Z,20.43
2023-05-30T14:10:36.993Z,20.96
2023-05-30T14:13:03.619Z,20.32
2023-05-30T14:15:30.064Z,20.21
2023-05-30T14:17:56.632Z,19.89
2023-05-30T14:20:23.305Z,20.70
2023-05-30T14:22:49.822Z,21.05
2023-05-30T14:25:16.490Z,21.17
2023-05-30T14:27:43.130Z,21.13
2023-05-30T14:30:10.482Z,20.55
2023-05-30T14:32:37.112Z,21.01
2023-05-30T14:35:03.874Z,20.83
2023-05-30T14:37:30.443Z,21.06
2023-05-30T14:39:57.029Z,20.51
2023-05-30T14:42:23.628Z,21.15
2023-05-30T14:44:50.227Z,21.66
2023-05-30T14:47:16.995Z,20.90
2023-05-30T14:49:43.846Z,20.32
2023-05-30T14:52:10.314Z,20.81
2023-05-30T14:54:36.807Z,20.58
2023-05-30T14:57:03.603Z,20.78
2023-05-30T14:59:30.221Z,20.72
2023-05-30T15:01:56.914Z,19.92
2023-05-30T15:04:23.609Z,19.59
2023-05-30T15:06:50.364Z,20.35
2023-05-30T15:09:16.875Z,20.47
2023-05-30T15:11:43.447Z,20.04
2023-05-30T15:14:10.039Z,20.11
2023-05-30T15:16:38.092Z,20.15
2023-05-30T15:19:06.623Z,20.00
2023-05-30T15:21:33.144Z,19.96
2023-05-30T15:24:00.497Z,19.62
2023-05-30T15:26:27.164Z,20.04
2023-05-30T15:28:54.388Z,19.98
2023-05-30T15:31:23.083Z,20.24
2023-05-30T15:33:49.642Z,20.27
2023-05-30T15:36:16.109Z,19.77
2023-05-30T15:38:42.843Z,20.12
2023-05-30T15:41:09.403Z,20.07
2023-05-30T15:43:36.100Z,20.39
2023-05-30T15:46:06.377Z,19.95
2023-05-30T15:48:33.325Z,19.77
2023-05-30T15:51:00.663Z,19.64
2023-05-30T15:53:28.638Z,20.38
2023-05-30T15:55:55.238Z,19.96
2023-05-30T15:58:21.887Z,20.00
2023-05-30T16:00:48.380Z,19.94
2023-05-30T16:03:15.686Z,20.00
2023-05-30T16:05:42.624Z,19.46
2023-05-30T16:08:09.181Z,19.52
2023-05-30T16:10:35.697Z,19.40
2023-05-30T16:13:02.201Z,19.13
2023-05-30T16:15:28.731Z,19.68
2023-05-30T16:17:55.463Z,18.86
2023-05-30T16:20:21.983Z,19.11
2023-05-30T16:22:48.503Z,18.72
2023-05-30T16:25:15.157Z,18.12
2023-05-30T16:27:41.740Z,18.41
2023-05-30T16:30:09.227Z,18.30
2023-05-30T16:32:35.897Z,18.57
2023-05-30T16:35:02.848Z,18.02
2023-05-30T16:37:29.552Z,18.03
2023-05-30T16:39:56.375Z,17.78
2023-05-30T16:42:23.284Z,17.86
2023-05-30T16:44:49.769Z,17.51
2023-05-30T16:47:16.356Z,17.12
2023-05-30T16:49:42.866Z,17.37
2023-05-30T16:52:09.428Z,17.04
2023-05-30T16:54:35.999Z,17.12
2023-05-30T16:57:02.599Z,17.40
2023-05-30T16:59:29.219Z,16.92
2023-05-30T17:01:55.736Z,17.30
2023-05-30T17:04:22.271Z,17.00
2023-05-30T17:06:48.913Z,17.16
2023-05-30T17:09:15.460Z,17.15
2023-05-30T17:11:41.984Z,16.77
2023-05-30T17:14:08.601Z,16.73
2023-05-30T17:16:35.716Z,16.47
2023-05-30T17:19:03.496Z,16.58
2023-05-30T17:21:32.258Z,16.53
2023-05-30T17:23:58.835Z,16.37
2023-05-30T17:26:25.375Z,16.55
2023-05-30T17:28:51.997Z,16.57
2023-05-30T17:31:18.670Z,16.67
2023-05-30T17:33:45.222Z,16.65
2023-05-30T17:36:11.708Z,16.51
2023-05-30T17:38:38.208Z,16.44
2023-05-30T17:41:04.787Z,16.73
2023-05-30T17:43:31.381Z,16.68
2023-05-30T17:45:58.001Z,16.36
2023-05-30T17:48:24.517Z,15.79
2023-05-30T17:50:51.051Z,16.26
2023-05-30T17:53:17.675Z,16.21
2023-05-30T17:55:44.303Z,16.19
2023-05-30T17:58:11.058Z,15.88
2023-05-30T18:00:37.678Z,15.64
2023-05-30T18:03:04.444Z,15.75
2023-05-30T18:05:30.976Z,16.01
2023-05-30T18:07:57.486Z,16.01
2023-05-30T18:10:24.266Z,15.36
2023-05-30T18:12:50.756Z,15.31
2023-05-30T18:15:17.201Z,15.47
2023-05-30T18:17:43.789Z,15.75
2023-05-30T18:20:10.726Z,15.63
2023-05-30T18:22:38.483Z,15.69
2023-05-30T18:25:05.491Z,15.53
2023-05-30T18:27:31.969Z,15.56
2023-05-30T18:29:58.459Z,15.48
2023-05-30T18:32:25.081Z,15.38
2023-05-30T18:34:51.612Z,15.53
2023-05-30T18:37:19.404Z,15.41
2023-05-30T18:39:45.896Z,15.41
2023-05-30T18:42:12.531Z,15.33
2023-05-30T18:44:39.240Z,15.48
2023-05-30T18:47:05.936Z,15.12
2023-05-30T18:49:32.635Z,15.41
2023-05-30T18:51:59.276Z,15.43
2023-05-30T18:54:25.778Z,15.24
2023-05-30T18:56:52.437Z,15.05
2023-05-30T18:59:18.997Z,15.20
2023-05-30T19:01:45.650Z,14.73
2023-05-30T19:04:12.256Z,15.08
2023-05-30T19:06:38.743Z,15.04
2023-05-30T19:09:05.846Z,15.02
2023-05-30T19:11:32.710Z,14.95
2023-05-30T19:14:00.084Z,14.73
2023-05-30T19:16:26.845Z,14.81
2023-05-30T19:18:53.532Z,14.97
2023-05-30T19:21:20.438Z,14.54
2023-05-30T19:23:46.972Z,14.85
2023-05-30T19:26:13.878Z,14.99
2023-05-30T19:28:41.071Z,14.78
2023-05-30T19:31:07.674Z,14.38
2023-05-30T19:33:34.395Z,14.16
2023-05-30T19:36:00.992Z,14.16
2023-05-30T19:38:27.794Z,14.57
2023-05-30T19:40:54.274Z,14.46
2023-05-30T19:43:20.725Z,14.51
2023-05-30T19:45:47.329Z,14.50
2023-05-30T19:48:14.054Z,14.09
2023-05-30T19:50:40.540Z,14.16
2023-05-30T19:53:07.287Z,14.53
2023-05-30T19:55:33.830Z,14.36
2023-05-30T19:58:00.406Z,14.24
2023-05-30T20:00:26.962Z,14.01
2023-05-30T20:02:53.659Z,14.26
2023-05-30T20:05:20.246Z,14.19
2023-05-30T20:07:46.780Z,14.16
2023-05-30T20:10:13.431Z,13.80
2023-05-30T20:12:40.126Z,14.09
2023-05-30T20:15:06.899Z,13.75
2023-05-30T20:17:34.576Z,14.01
2023-05-30T20:20:01.377Z,14.04
2023-05-30T20:22:28.081Z,14.01
2023-05-30T20:24:54.580Z,13.70
2023-05-30T20:27:21.378Z,13.94
2023-05-30T20:29:48.208Z,13.98
2023-05-30T20:32:14.839Z,14.11
2023-05-30T20:34:41.501Z,13.53
2023-05-30T20:37:07.974Z,13.45
2023-05-30T20:39:34.494Z,13.93
2023-05-30T20:42:01.082Z,13.32
2023-05-30T20:44:27.610Z,13.70
2023-05-30T20:46:54.061Z,13.40
2023-05-30T20:49:20.569Z,13.64
2023-05-30T20:51:47.134Z,13.68
2023-05-30T20:54:14.036Z,13.66
2023-05-30T20:56:40.591Z,13.77
2023-05-30T20:59:07.069Z,13.72
2023-05-30T21:01:33.678Z,13.51
2023-05-30T21:04:00.257Z,13.59
2023-05-30T21:06:26.916Z,13.46
2023-05-30T21:08:53.337Z,13.56
2023-05-30T21:11:20.003Z,13.46
2023-05-30T21:13:46.630Z,13.26
2023-05-30T21:16:15.091Z,13.08
2023-05-30T21:18:41.622Z,13.47
2023-05-30T21:21:08.102Z,13.29
2023-05-30T21:23:34.651Z,13.38
2023-05-30T21:26:01.155Z,13.11
2023-05-30T21:28:27.674Z,13.28
2023-05-30T21:30:54.285Z,13.39
2023-05-30T21:33:20.957Z,13.25
2023-05-30T21:35:47.519Z,13.09
2023-05-30T21:38:14.144Z,13.17
2023-05-30T21:40:40.701Z,13.15
2023-05-30T21:43:07.474Z,13.35
2023-05-30T21:45:34.015Z,13.18
2023-05-30T21:48:00.585Z,13.09
2023-05-30T21:50:27.116Z,12.91
2023-05-30T21:52:53.645Z,13.18
2023-05-30T21:55:20.172Z,12.98
2023-05-30T21:57:46.696Z,13.04
2023-05-30T22:00:13.872Z,12.66
2023-05-30T22:02:40.528Z,12.94
2023-05-30T22:05:07.493Z,12.96
2023-05-30T22:07:34.062Z,12.96
2023-05-30T22:10:00.699Z,13.00
2023-05-30T22:12:27.285Z,12.98
2023-05-30T22:14:53.779Z,12.66
2023-05-30T22:17:20.231Z,13.02
2023-05-30T22:19:46.699Z,12.89
2023-05-30T22:22:13.143Z,12.99
2023-05-30T22:24:39.796Z,13.11
2023-05-30T22:27:06.640Z,12.89
2023-05-30T22:29:33.504Z,12.86
2023-05-30T22:32:00.145Z,12.80
2023-05-30T22:34:26.795Z,12.81
2023-05-30T22:36:53.285Z,12.74
2023-05-30T22:39:19.866Z,12.68
2023-05-30T22:41:46.470Z,12.74
2023-05-30T22:44:12.998Z,12.73
2023-05-30T22:46:39.550Z,12.48
2023-05-30T22:49:06.151Z,12.73
2023-05-30T22:51:32.630Z,12.66
2023-05-30T22:53:59.097Z,12.63
2023-05-30T22:56:25.568Z,12.60
2023-05-30T22:58:52.612Z,12.70
2023-05-30T23:01:19.181Z,12.61
2023-05-30T23:03:45.742Z,12.63
2023-05-30T23:06:12.255Z,12.68
2023-05-30T23:08:38.916Z,12.56
2023-05-30T23:11:05.484Z,12.28
2023-05-30T23:13:31.982Z,12.59
2023-05-30T23:15:58.611Z,12.10
2023-05-30T23:18:25.260Z,12.17
2023-05-30T23:20:51.897Z,12.38
2023-05-30T23:23:18.451Z,12.09
2023-05-30T23:25:45.182Z,12.27
2023-05-30T23:28:11.915Z,12.17
2023-05-30T23:30:38.510Z,12.51
2023-05-30T23:33:05.108Z,12.21
2023-05-30T23:35:31.694Z,12.42
2023-05-30T23:37:58.206Z,12.23
2023-05-30T23:40:25.037Z,11.93
2023-05-30T23:42:51.561Z,12.39
2023-05-30T23:45:18.169Z,12.23
2023-05-30T23:47:44.774Z,12.23
2023-05-30T23:50:11.609Z,12.34
2023-05-30T23:52:38.459Z,12.15
2023-05-30T23:55:05.415Z,12.09
2023-05-30T23:57:31.966Z,12.19
2023-05-30T23:59:58.605Z,12.18
